createdAt,value
2023-02-27T00:02:39.666Z,100.00
2023-02-27T00:05:49.032Z,100.00
2023-02-27T00:08:58.671Z,100.00
2023-02-27T00:12:12.097Z,100.00
2023-02-27T00:15:22.651Z,100.00
2023-02-27T00:18:32.161Z,100.00
2023-02-27T00:21:41.579Z,100.00
2023-02-27T00:24:50.966Z,100.00
2023-02-27T00:28:01.964Z,100.00
2023-02-27T00:31:11.571Z,100.00
2023-02-27T00:34:21.343Z,100.00
2023-02-27T00:37:30.650Z,100.00
2023-02-27T00:40:40.376Z,100.00
2023-02-27T00:43:51.131Z,100.00
2023-02-27T00:47:00.634Z,100.00
2023-02-27T00:50:11.286Z,100.00
2023-02-27T00:53:20.624Z,100.00
2023-02-27T00:56:30.284Z,100.00
2023-02-27T00:59:41.360Z,100.00
2023-02-27T01:02:50.818Z,100.00
2023-02-27T01:06:00.355Z,100.00
2023-02-27T01:09:09.711Z,100.00
2023-02-27T01:12:19.677Z,100.00
2023-02-27T01:15:30.680Z,100.00
2023-02-27T01:18:40.759Z,100.00
2023-02-27T01:21:50.183Z,100.00
2023-02-27T01:24:59.553Z,100.00
2023-02-27T01:28:08.921Z,100.00
2023-02-27T01:31:20.557Z,100.00
2023-02-27T01:34:29.874Z,100.00
2023-02-27T01:37:39.179Z,100.00
2023-02-27T01:40:48.571Z,100.00
2023-02-27T01:44:00.166Z,100.00
2023-02-27T01:47:10.976Z,100.00
2023-02-27T01:50:21.953Z,100.00
2023-02-27T01:53:32.828Z,100.00
2023-02-27T01:56:43.468Z,100.00
2023-02-27T01:59:52.927Z,100.00
2023-02-27T02:03:11.414Z,100.00
2023-02-27T02:06:20.808Z,100.00
2023-02-27T02:09:31.000Z,100.00
2023-02-27T02:12:42.107Z,100.00
2023-02-27T02:16:01.650Z,100.00
2023-02-27T02:19:34.851Z,100.00
2023-02-27T02:23:00.991Z,100.00
2023-02-27T02:26:39.239Z,100.00
2023-02-27T02:30:28.058Z,100.00
2023-02-27T02:34:09.208Z,100.00
2023-02-27T02:38:09.409Z,100.00
2023-02-27T02:41:26.785Z,100.00
2023-02-27T02:44:42.958Z,100.00
2023-02-27T02:48:01.578Z,100.00
2023-02-27T02:51:16.153Z,100.00
2023-02-27T02:54:30.240Z,100.00
2023-02-27T02:57:43.748Z,100.00
2023-02-27T03:00:58.258Z,100.00
2023-02-27T03:04:10.645Z,100.00
2023-02-27T03:07:24.642Z,100.00
2023-02-27T03:10:37.446Z,100.00
2023-02-27T03:13:51.452Z,100.00
2023-02-27T03:17:04.495Z,100.00
2023-02-27T03:20:18.078Z,100.00
2023-02-27T03:23:31.340Z,100.00
2023-02-27T03:26:46.515Z,100.00
2023-02-27T03:29:59.648Z,100.00
2023-02-27T03:33:11.650Z,100.00
2023-02-27T03:36:28.843Z,100.00
2023-02-27T03:39:41.992Z,100.00
2023-02-27T03:42:56.591Z,100.00
2023-02-27T03:46:19.128Z,100.00
2023-02-27T03:49:28.903Z,100.00
2023-02-27T03:52:38.342Z,100.00
2023-02-27T03:55:49.250Z,100.00
2023-02-27T03:58:58.455Z,100.00
2023-02-27T04:02:09.386Z,100.00
2023-02-27T04:05:20.294Z,100.00
2023-02-27T04:08:43.476Z,100.00
2023-02-27T04:12:04.101Z,100.00
2023-02-27T04:15:19.326Z,100.00
2023-02-27T04:18:44.951Z,100.00
2023-02-27T04:22:00.460Z,100.00
2023-02-27T04:25:30.014Z,100.00
2023-02-27T04:28:44.524Z,100.00
2023-02-27T04:31:57.747Z,100.00
2023-02-27T04:35:11.806Z,100.00
2023-02-27T04:38:23.973Z,100.00
2023-02-27T04:41:36.297Z,100.00
2023-02-27T04:44:46.484Z,100.00
2023-02-27T04:47:58.919Z,100.00
2023-02-27T04:51:14.670Z,100.00
2023-02-27T04:54:27.974Z,100.00
2023-02-27T04:57:41.828Z,100.00
2023-02-27T05:00:56.489Z,100.00
2023-02-27T05:04:06.920Z,100.00
2023-02-27T05:07:20.887Z,100.00
2023-02-27T05:10:35.735Z,100.00
2023-02-27T05:13:47.397Z,100.00
2023-02-27T05:17:02.813Z,100.00
2023-02-27T05:20:13.366Z,100.00
2023-02-27T05:23:30.290Z,100.00
2023-02-27T05:26:49.420Z,100.00
2023-02-27T05:30:03.502Z,100.00
2023-02-27T05:33:17.287Z,100.00
2023-02-27T05:36:30.248Z,100.00
2023-02-27T05:39:42.308Z,100.00
2023-02-27T05:42:56.223Z,100.00
2023-02-27T05:46:08.006Z,100.00
2023-02-27T05:49:19.898Z,100.00
2023-02-27T05:52:30.439Z,100.00
2023-02-27T05:55:44.120Z,100.00
2023-02-27T05:58:57.495Z,100.00
2023-02-27T06:02:07.091Z,100.00
2023-02-27T06:05:17.845Z,100.00
2023-02-27T06:08:27.253Z,100.00
2023-02-27T06:11:38.007Z,100.00
2023-02-27T06:14:47.524Z,100.00
2023-02-27T06:17:56.853Z,100.00
2023-02-27T06:21:06.658Z,100.00
2023-02-27T06:24:15.961Z,95.33
2023-02-27T06:27:27.433Z,91.00
2023-02-27T06:30:37.085Z,88.54
2023-02-27T06:33:46.393Z,85.79
2023-02-27T06:36:55.730Z,84.65
2023-02-27T06:40:07.558Z,82.52
2023-02-27T06:43:18.342Z,81.06
2023-02-27T06:46:28.190Z,77.27
2023-02-27T06:49:37.934Z,75.85
2023-02-27T06:52:47.214Z,74.91
2023-02-27T06:55:56.980Z,73.96
2023-02-27T06:59:07.866Z,72.44
2023-02-27T07:02:18.275Z,71.40
2023-02-27T07:05:27.857Z,67.70
2023-02-27T07:08:37.351Z,68.40
2023-02-27T07:11:46.739Z,64.87
2023-02-27T07:14:59.155Z,61.37
2023-02-27T07:18:08.694Z,59.82
2023-02-27T07:20:38.356Z,55.84
2023-02-27T07:23:07.885Z,52.93
2023-02-27T07:25:38.181Z,49.53
2023-02-27T07:29:20.292Z,46.23
2023-02-27T09:41:02.739Z,26.24
2023-02-27T09:43:37.214Z,23.37
2023-02-27T09:46:07.897Z,22.48
2023-02-27T09:48:40.466Z,21.37
2023-02-27T09:51:09.806Z,20.34
2023-02-27T09:53:41.227Z,20.24
2023-02-27T09:56:18.161Z,19.98
2023-02-27T09:58:51.034Z,19.50
2023-02-27T10:01:23.094Z,20.02
2023-02-27T10:04:25.967Z,17.99
2023-02-27T10:06:58.265Z,18.12
2023-02-27T10:09:39.473Z,20.95
2023-02-27T10:12:18.891Z,23.66
2023-02-27T10:14:49.755Z,26.00
2023-02-27T10:17:24.692Z,28.01
2023-02-27T10:19:54.612Z,29.49
2023-02-27T10:22:25.512Z,30.31
2023-02-27T10:24:58.908Z,30.41
2023-02-27T10:27:29.960Z,30.47
2023-02-27T10:30:17.380Z,32.00
2023-02-27T10:32:49.534Z,32.83
2023-02-27T10:35:34.176Z,34.07
2023-02-27T10:38:04.990Z,34.75
2023-02-27T10:40:36.986Z,35.24
2023-02-27T10:43:08.491Z,36.18
2023-02-27T10:45:38.987Z,36.19
2023-02-27T10:48:08.690Z,36.42
2023-02-27T10:50:41.062Z,36.96
2023-02-27T10:53:21.006Z,36.71
2023-02-27T10:55:59.827Z,36.38
2023-02-27T10:58:34.635Z,36.52
2023-02-27T11:01:06.108Z,36.91
2023-02-27T11:03:39.851Z,37.01
2023-02-27T11:06:13.761Z,37.97
2023-02-27T11:08:43.732Z,38.14
2023-02-27T11:11:13.837Z,38.52
2023-02-27T11:13:46.045Z,38.84
2023-02-27T11:16:17.128Z,38.60
2023-02-27T11:18:47.032Z,38.73
2023-02-27T11:21:22.919Z,38.69
2023-02-27T11:23:58.335Z,37.54
2023-02-27T11:26:33.222Z,37.97
2023-02-27T11:29:08.985Z,38.17
2023-02-27T11:31:39.067Z,38.17
2023-02-27T11:34:09.589Z,38.79
2023-02-27T11:36:43.962Z,39.29
2023-02-27T11:39:27.624Z,39.37
2023-02-27T11:41:59.791Z,39.12
2023-02-27T11:44:49.989Z,39.15
2023-02-27T11:47:24.437Z,39.65
2023-02-27T11:50:35.848Z,40.01
2023-02-27T11:53:20.741Z,41.78
2023-02-27T11:55:50.808Z,41.80
2023-02-27T11:58:22.899Z,41.99
2023-02-27T12:00:56.250Z,41.63
2023-02-27T12:03:28.507Z,42.03
2023-02-27T12:05:59.211Z,40.85
2023-02-27T12:08:34.176Z,40.62
2023-02-27T12:11:57.412Z,40.79
2023-02-27T12:14:50.563Z,41.26
2023-02-27T12:17:25.469Z,41.40
2023-02-27T12:20:02.888Z,41.49
2023-02-27T12:22:35.623Z,41.38
2023-02-27T12:25:09.131Z,42.11
2023-02-27T12:27:44.676Z,41.63
2023-02-27T12:30:17.924Z,41.73
2023-02-27T12:32:51.597Z,41.38
2023-02-27T12:35:24.939Z,41.67
2023-02-27T12:37:53.825Z,41.44
2023-02-27T12:40:26.720Z,42.04
2023-02-27T12:43:17.548Z,41.34
2023-02-27T12:45:57.427Z,41.30
2023-02-27T12:48:36.931Z,41.91
2023-02-27T12:51:10.824Z,41.23
2023-02-27T12:53:55.067Z,41.63
2023-02-27T12:56:26.327Z,41.89
2023-02-27T12:58:59.829Z,41.69
2023-02-27T13:01:37.918Z,41.26
2023-02-27T13:04:17.942Z,41.50
2023-02-27T13:06:50.976Z,41.51
2023-02-27T13:09:25.977Z,40.67
2023-02-27T13:12:00.178Z,40.53
2023-02-27T13:14:42.080Z,40.13
2023-02-27T13:17:19.435Z,40.55
2023-02-27T13:19:53.614Z,39.56
2023-02-27T13:22:31.744Z,38.48
2023-02-27T13:25:03.270Z,39.14
2023-02-27T13:27:34.910Z,39.04
2023-02-27T13:30:14.582Z,38.80
2023-02-27T13:32:48.034Z,39.38
2023-02-27T13:35:36.316Z,39.37
2023-02-27T13:38:26.570Z,39.33
2023-02-27T13:40:55.674Z,38.05
2023-02-27T13:43:46.478Z,38.06
2023-02-27T13:46:24.607Z,38.10
2023-02-27T13:48:53.948Z,37.58
2023-02-27T13:51:59.961Z,36.70
2023-02-27T13:54:32.938Z,37.88
2023-02-27T13:57:18.200Z,38.65
2023-02-27T13:59:54.749Z,39.06
2023-02-27T14:02:35.062Z,39.09
2023-02-27T14:05:07.461Z,39.61
2023-02-27T14:07:55.412Z,40.76
2023-02-27T14:10:26.782Z,41.06
2023-02-27T14:12:57.626Z,41.36
2023-02-27T14:15:56.127Z,41.68
2023-02-27T14:18:56.378Z,42.28
2023-02-27T14:21:58.972Z,42.96
2023-02-27T14:24:36.462Z,43.56
2023-02-27T14:27:07.296Z,44.07
2023-02-27T14:29:36.833Z,44.78
2023-02-27T14:32:08.809Z,44.61
2023-02-27T14:34:38.180Z,44.25
2023-02-27T14:37:08.863Z,44.44
2023-02-27T14:39:39.589Z,44.67
2023-02-27T14:42:28.822Z,45.00
2023-02-27T14:44:58.174Z,45.19
2023-02-27T14:47:31.407Z,45.16
2023-02-27T14:50:00.226Z,45.18
2023-02-27T14:52:31.228Z,45.51
2023-02-27T14:55:17.643Z,45.21
2023-02-27T14:58:00.198Z,46.07
2023-02-27T15:00:38.441Z,45.81
2023-02-27T15:03:20.692Z,45.96
2023-02-27T15:05:50.222Z,45.74
2023-02-27T15:08:22.414Z,45.96
2023-02-27T15:10:53.655Z,46.63
2023-02-27T15:13:27.592Z,46.35
2023-02-27T15:16:32.090Z,46.74
2023-02-27T15:19:04.353Z,46.61
2023-02-27T15:21:35.435Z,46.42
2023-02-27T15:24:06.756Z,46.98
2023-02-27T15:26:39.998Z,47.51
2023-02-27T15:29:10.628Z,47.71
2023-02-27T15:31:39.432Z,48.62
2023-02-27T15:34:13.268Z,48.24
2023-02-27T15:36:47.616Z,48.44
2023-02-27T15:39:18.776Z,47.88
2023-02-27T15:41:52.161Z,48.22
2023-02-27T15:44:24.942Z,49.01
2023-02-27T15:46:54.568Z,48.83
2023-02-27T15:49:25.539Z,49.66
2023-02-27T15:52:01.611Z,48.70
2023-02-27T15:54:35.015Z,48.32
2023-02-27T15:57:07.806Z,49.08
2023-02-27T15:59:38.462Z,49.39
2023-02-27T16:02:11.358Z,49.82
2023-02-27T16:04:40.504Z,50.38
2023-02-27T16:07:17.404Z,50.27
2023-02-27T16:09:51.475Z,50.89
2023-02-27T16:12:30.787Z,51.25
2023-02-27T16:15:34.723Z,51.34
2023-02-27T16:18:07.830Z,51.67
2023-02-27T16:20:42.706Z,52.18
2023-02-27T16:23:21.616Z,52.58
2023-02-27T16:26:08.234Z,52.16
2023-02-27T16:28:41.929Z,51.51
2023-02-27T16:31:22.100Z,51.54
2023-02-27T16:33:50.939Z,51.08
2023-02-27T16:36:22.146Z,50.68
2023-02-27T16:38:51.894Z,51.42
2023-02-27T16:41:22.978Z,51.81
2023-02-27T16:43:54.462Z,51.50
2023-02-27T16:46:23.897Z,51.82
2023-02-27T16:48:54.641Z,52.07
2023-02-27T16:51:25.775Z,52.13
2023-02-27T16:53:55.784Z,51.83
2023-02-27T16:56:37.366Z,52.35
2023-02-27T16:59:12.892Z,52.18
2023-02-27T17:01:41.975Z,52.02
2023-02-27T17:04:24.946Z,52.03
2023-02-27T17:06:55.521Z,52.36
2023-02-27T17:09:24.595Z,52.00
2023-02-27T17:11:53.688Z,52.19
2023-02-27T17:14:24.206Z,52.11
2023-02-27T17:16:53.456Z,52.04
2023-02-27T17:19:22.689Z,51.59
2023-02-27T17:21:52.037Z,51.70
2023-02-27T17:24:21.055Z,51.87
2023-02-27T17:26:52.370Z,51.50
2023-02-27T17:29:21.703Z,51.64
2023-02-27T17:31:52.092Z,51.25
2023-02-27T17:34:22.411Z,51.37
2023-02-27T17:36:52.082Z,51.20
2023-02-27T17:39:21.297Z,51.36
2023-02-27T17:41:53.046Z,50.99
2023-02-27T17:44:23.273Z,50.61
2023-02-27T17:46:53.490Z,51.13
2023-02-27T17:49:22.692Z,51.04
2023-02-27T17:51:51.948Z,51.09
2023-02-27T17:54:21.454Z,51.77
2023-02-27T17:56:50.506Z,51.44
2023-02-27T17:59:19.910Z,51.86
2023-02-27T18:01:48.581Z,51.69
2023-02-27T18:04:19.358Z,51.83
2023-02-27T18:06:48.851Z,51.89
2023-02-27T18:09:18.058Z,52.19
2023-02-27T18:11:47.322Z,51.85
2023-02-27T18:14:16.668Z,51.44
2023-02-27T18:16:45.472Z,51.95
2023-02-27T18:19:15.269Z,52.21
2023-02-27T18:21:47.357Z,52.47
2023-02-27T18:24:17.614Z,52.87
2023-02-27T18:26:46.465Z,52.95
2023-02-27T18:29:17.922Z,53.14
2023-02-27T18:31:50.260Z,53.40
2023-02-27T18:34:19.368Z,53.67
2023-02-27T18:36:51.388Z,52.87
2023-02-27T18:39:22.721Z,52.58
2023-02-27T18:41:51.864Z,53.34
2023-02-27T18:44:20.932Z,53.99
2023-02-27T18:46:49.777Z,53.65
2023-02-27T18:49:18.991Z,54.50
2023-02-27T18:51:49.626Z,55.41
2023-02-27T18:54:18.836Z,53.88
2023-02-27T18:56:48.664Z,54.10
2023-02-27T18:59:17.769Z,54.43
2023-02-27T19:01:46.341Z,54.57
2023-02-27T19:04:15.532Z,54.62
2023-02-27T19:06:44.684Z,54.57
2023-02-27T19:09:17.258Z,54.58
2023-02-27T19:11:47.150Z,53.50
2023-02-27T19:14:17.341Z,53.94
2023-02-27T19:16:48.550Z,53.77
2023-02-27T19:19:17.608Z,54.07
2023-02-27T19:21:48.034Z,53.89
2023-02-27T19:24:18.518Z,54.72
2023-02-27T19:26:47.564Z,55.14
2023-02-27T19:29:16.864Z,54.71
2023-02-27T19:31:45.769Z,54.91
2023-02-27T19:34:15.059Z,54.61
2023-02-27T19:36:44.277Z,54.92
2023-02-27T19:39:13.388Z,55.59
2023-02-27T19:41:43.850Z,56.14
2023-02-27T19:44:13.044Z,55.98
2023-02-27T19:46:43.622Z,55.49
2023-02-27T19:49:12.998Z,56.14
2023-02-27T19:51:42.726Z,55.79
2023-02-27T19:54:14.341Z,56.47
2023-02-27T19:56:44.865Z,56.86
2023-02-27T19:59:14.480Z,57.26
2023-02-27T20:01:43.228Z,57.83
2023-02-27T20:04:12.971Z,58.02
2023-02-27T20:06:44.125Z,59.19
2023-02-27T20:09:14.743Z,59.06
2023-02-27T20:11:46.042Z,59.59
2023-02-27T20:14:17.622Z,60.26
2023-02-27T20:16:46.855Z,60.65
2023-02-27T20:19:20.183Z,60.99
2023-02-27T20:21:50.619Z,61.37
2023-02-27T20:24:20.698Z,61.71
2023-02-27T20:26:52.758Z,61.54
2023-02-27T20:29:24.205Z,61.15
2023-02-27T20:31:55.638Z,60.97
2023-02-27T20:34:26.553Z,62.68
2023-02-27T20:36:56.399Z,63.33
2023-02-27T20:39:25.705Z,63.09
2023-02-27T20:41:56.280Z,63.45
2023-02-27T20:44:25.431Z,63.50
2023-02-27T20:46:54.185Z,63.65
2023-02-27T20:49:23.563Z,63.93
2023-02-27T20:51:53.008Z,64.84
2023-02-27T20:54:22.126Z,66.25
2023-02-27T20:56:54.440Z,66.61
2023-02-27T20:59:26.771Z,67.29
2023-02-27T21:01:56.098Z,67.49
2023-02-27T21:04:26.740Z,67.43
2023-02-27T21:06:56.107Z,68.46
2023-02-27T21:09:25.351Z,68.53
2023-02-27T21:11:55.265Z,68.46
2023-02-27T21:14:26.922Z,68.25
2023-02-27T21:16:55.773Z,68.29
2023-02-27T21:19:26.162Z,68.57
2023-02-27T21:21:55.506Z,69.07
2023-02-27T21:24:25.778Z,70.10
2023-02-27T21:26:55.065Z,70.08
2023-02-27T21:29:26.032Z,70.09
2023-02-27T21:31:55.072Z,70.48
2023-02-27T21:34:27.045Z,71.01
2023-02-27T21:36:56.876Z,71.10
2023-02-27T21:39:28.362Z,72.68
2023-02-27T21:41:59.142Z,74.27
2023-02-27T21:44:30.113Z,77.81
2023-02-27T21:47:10.287Z,77.92
2023-02-27T21:49:39.769Z,77.25
2023-02-27T21:52:08.809Z,77.05
2023-02-27T21:54:37.878Z,76.08
2023-02-27T21:57:07.234Z,75.95
2023-02-27T21:59:37.823Z,76.08
2023-02-27T22:02:07.135Z,75.10
2023-02-27T22:04:36.054Z,75.37
2023-02-27T22:07:05.250Z,76.41
2023-02-27T22:09:34.393Z,77.88
2023-02-27T22:12:03.825Z,77.93
2023-02-27T22:14:33.197Z,77.76
2023-02-27T22:17:03.791Z,78.21
2023-02-27T22:19:32.240Z,76.93
2023-02-27T22:22:01.668Z,77.69
2023-02-27T22:24:30.742Z,78.03
2023-02-27T22:26:59.883Z,79.09
2023-02-27T22:29:29.217Z,79.03
2023-02-27T22:31:58.270Z,79.06
2023-02-27T22:34:28.439Z,79.16
2023-02-27T22:36:57.481Z,78.96
2023-02-27T22:39:26.511Z,78.84
2023-02-27T22:41:56.899Z,78.72
2023-02-27T22:44:26.114Z,79.05
2023-02-27T22:46:54.911Z,78.95
2023-02-27T22:49:24.856Z,80.12
2023-02-27T22:51:55.454Z,79.67
2023-02-27T22:54:25.710Z,79.64
2023-02-27T22:56:57.960Z,80.00
2023-02-27T22:59:27.360Z,81.26
2023-02-27T23:01:56.264Z,81.79
2023-02-27T23:04:25.463Z,82.61
2023-02-27T23:06:56.924Z,83.09
2023-02-27T23:09:27.436Z,83.89
2023-02-27T23:11:56.613Z,84.82
2023-02-27T23:14:25.751Z,84.73
2023-02-27T23:16:54.456Z,85.05
2023-02-27T23:19:24.688Z,85.92
2023-02-27T23:21:53.451Z,85.99
2023-02-27T23:24:24.723Z,85.85
2023-02-27T23:26:54.383Z,85.73
2023-02-27T23:29:23.572Z,85.08
2023-02-27T23:31:52.639Z,85.05
2023-02-27T23:34:21.959Z,86.10
2023-02-27T23:36:51.151Z,86.80
2023-02-27T23:39:20.780Z,86.61
2023-02-27T23:41:51.347Z,87.14
2023-02-27T23:44:37.794Z,87.35
2023-02-27T23:47:06.587Z,87.99
2023-02-27T23:49:35.750Z,89.01
2023-02-27T23:52:04.996Z,89.91
2023-02-27T23:54:34.415Z,90.01
2023-02-27T23:57:05.143Z,90.04
2023-02-27T23:59:34.136Z,90.12
